»·PEaware :: N3861Q KBUR-KSMX

N3861Q :: KBUR-KSMX

FLIGHT INFORMATION

Flight Status: Arrived
Operator: Privately registered:
United States
More flights under this callsign
Pilot: Rod M. (882)
Aircraft: PIPER PA-31/31P NAVAJO CHIEFTAIN
(PA31)
More flights by this aircraft type
Origin: KBUR Bob Hope-Burbank
United States
Destination: KSMX Santa Maria Pub/Capt Hancock
United States
More flights between these airports :: More routes between these airports
Route: +VNY3 FIM V383 RZS KOAKS
File this flight plan on PilotEdge
Remarks:
Altitude:
(Current/Filed)
10,000ft
Speed:
(Current/Filed)
180kts
Departed: 12-Oct-17 05:31 PM
Arrived: 12-Oct-17 06:18 PM
Distance/Time
Traveled:
111nm/0:47
Distance/Time
To Go:
Arrived

Flight Plot

Page will automatically refresh every two minutes.

Flight plan parsing failed; only flown route is shown


Map Options




Map Legend


Flown Route
Filed Route
Departure Airport
Arrival Airport
Navaid (VOR, NDB)
Fix

Horizontal Profiles

Position Reports

Time Latitude Longitude Heading Altitude Ground
Speed
12-Oct-17 17:26 34.196192 -118.363836 314 781ft 0kts
12-Oct-17 17:26 34.196192 -118.363836 314 781ft 0kts
12-Oct-17 17:27 34.196192 -118.363836 314 781ft 0kts
12-Oct-17 17:28 34.196192 -118.363836 314 781ft 0kts
12-Oct-17 17:29 34.196192 -118.363836 314 781ft 0kts
12-Oct-17 17:30 34.196192 -118.363836 314 781ft 0kts
12-Oct-17 17:31 34.196192 -118.363836 314 781ft 0kts
12-Oct-17 17:32 34.196906 -118.367063 269 781ft 16kts
12-Oct-17 17:33 34.197048 -118.369030 344 781ft 0kts
12-Oct-17 17:34 34.197048 -118.369030 344 781ft 0kts
12-Oct-17 17:35 34.197874 -118.365831 89 781ft 68kts
12-Oct-17 17:36 34.189892 -118.328192 143 1628ft 130kts
12-Oct-17 17:37 34.158970 -118.339863 224 2839ft 133kts
12-Oct-17 17:38 34.133235 -118.373372 227 3978ft 138kts
12-Oct-17 17:39 34.111705 -118.410423 269 5023ft 150kts
12-Oct-17 17:40 34.112842 -118.458735 272 6243ft 144kts
12-Oct-17 17:41 34.113855 -118.506987 270 7331ft 145kts
12-Oct-17 17:42 34.113587 -118.555668 268 8426ft 146kts
12-Oct-17 17:43 34.114834 -118.604269 269 9446ft 149kts
12-Oct-17 17:44 34.116562 -118.653987 295 10099ft 165kts
12-Oct-17 17:45 34.138871 -118.706190 297 10007ft 177kts
12-Oct-17 17:46 34.158680 -118.760591 290 10011ft 178kts
12-Oct-17 17:47 34.177593 -118.816091 291 10013ft 179kts
12-Oct-17 17:48 34.197036 -118.871388 291 10011ft 178kts
12-Oct-17 17:49 34.216479 -118.926550 291 10010ft 178kts
12-Oct-17 17:50 34.235761 -118.981345 291 10009ft 177kts
12-Oct-17 17:51 34.254926 -119.035906 292 10008ft 176kts
12-Oct-17 17:52 34.274001 -119.090273 292 10008ft 175kts
12-Oct-17 17:53 34.292997 -119.144484 292 10008ft 175kts
12-Oct-17 17:54 34.311886 -119.198475 292 10008ft 174kts
12-Oct-17 17:55 34.330789 -119.252609 292 10008ft 174kts
12-Oct-17 17:56 34.349618 -119.306601 292 10007ft 174kts
12-Oct-17 17:57 34.368415 -119.360539 291 10003ft 174kts
12-Oct-17 17:58 34.387248 -119.414552 291 9601ft 175kts
12-Oct-17 17:59 34.405933 -119.468312 290 8761ft 169kts
12-Oct-17 18:00 34.423383 -119.518753 289 8247ft 157kts
12-Oct-17 18:01 34.440173 -119.567646 289 7803ft 166kts
12-Oct-17 18:02 34.458691 -119.621382 290 7458ft 178kts
12-Oct-17 18:03 34.478140 -119.677783 289 7126ft 184kts
12-Oct-17 18:04 34.498095 -119.735756 289 6610ft 184kts
12-Oct-17 18:05 34.520307 -119.791801 297 6105ft 188kts
12-Oct-17 18:06 34.542903 -119.846124 262 5977ft 170kts
12-Oct-17 18:07 34.561308 -119.897820 301 5986ft 170kts
12-Oct-17 18:08 34.587598 -119.944617 300 5993ft 168kts
12-Oct-17 18:09 34.613939 -119.992611 300 5998ft 171kts
12-Oct-17 18:10 34.642192 -120.038758 311 6000ft 172kts
12-Oct-17 18:11 34.667874 -120.087178 296 5998ft 170kts
12-Oct-17 18:12 34.690431 -120.137663 296 5807ft 172kts
12-Oct-17 18:13 34.713787 -120.189711 297 5195ft 177kts
12-Oct-17 18:14 34.737682 -120.241963 297 4604ft 175kts
12-Oct-17 18:15 34.757091 -120.283971 298 4640ft 119kts
12-Oct-17 18:16 34.781399 -120.311234 314 4182ft 119kts
12-Oct-17 18:17 34.804466 -120.339764 313 3562ft 121kts
12-Oct-17 18:18 34.827722 -120.368873 314 2591ft 125kts
12-Oct-17 18:19 34.851456 -120.395708 310 1635ft 111kts
12-Oct-17 18:20 34.872899 -120.421863 312 837ft 108kts
12-Oct-17 18:21 34.893537 -120.446662 312 279ft 91kts
12-Oct-17 18:22 34.900573 -120.453283 3 265ft 3kts
12-Oct-17 18:24 34.900576 -120.453282 3 265ft 0kts
12-Oct-17 18:25 34.900585 -120.453282 3 265ft 0kts
12-Oct-17 18:26 34.898878 -120.450567 135 265ft 13kts
12-Oct-17 18:27 34.896156 -120.447311 131 265ft 5kts
12-Oct-17 18:28 34.895547 -120.444369 314 265ft 8kts
12-Oct-17 18:29 34.895576 -120.444412 307 265ft 0kts
12-Oct-17 18:30 34.895576 -120.444412 307 265ft 0kts
12-Oct-17 18:31 34.895576 -120.444412 307 265ft 0kts

Navigation Log

Ident Type
Flight plan parsing failed, navigation log unavailable